Hannibal, WI (54439)

9:55 AM CST on February 24, 2017 (GMT -0600)
N Gilman Dr | | Change Station
Active Advisory: Winter Storm Warning Active Notice: Public Information Statement

Elev 1237 ft 45.17 °N, 90.82 °W | Updated 4 minutes ago

Overcast
Overcast
22.8 °F
Feels Like 15 °F
N
5.8
Wind Variable Wind from NNE
Gusts 10.1 mph

Today
High -- | Low -- °F
--% Chance of Precip.
Yesterday
High -- | Low -- °F
Precip. -- in
Pressure 29.80 in
Visibility 3.0 miles
Clouds Overcast 2100 ft
Windchill 15 °F
Dew Point 15 °F
Humidity 73%
Rainfall 0.00 in
Snow Depth Not available.
6:49 AM 5:43 PM
Waning Crescent, 4% visible
METAR KRCX 241535Z AUTO 02014G22KT 3SM -SN OVC021 M04/M07 A2980 RMK AO2 T10361068
Pressure 29.80 in
Visibility 3.0 miles
Clouds Overcast 2100 ft
Windchill 15 °F
Dew Point 15 °F
Humidity 73%
Rainfall 0.00 in
Snow Depth Not available.
6:49 AM 5:43 PM
Waning Crescent, 4% visible
METAR KRCX 241535Z AUTO 02014G22KT 3SM -SN OVC021 M04/M07 A2980 RMK AO2 T10361068

Get Your Daily Forecast Email!

Thanks for signing up!

Be on the lookout for a verification email in your inbox.

You'll start receiving the daily forecast at 8 AM.

×

10-Day Weather Forecast

Almanac

Astronomy

Feb. 24, 2017 Rise Set
Actual Time
Civil Twilight
Nautical Twilight
Astronomical Twilight
Moon
Length of Visible Light
Length of Day
Tomorrow will be .
, % of the Moon is Illuminated

Today's Extremes

State Highs State Lows

Community

WunderPhotos

Upload Photos

1,962,540 photos uploaded!

WunderBlog® & News

Nearby

Air Quality

  Air Quality AQ Index Pollutant
Not available.

Snow Depth

Station Depth Elevation

Earthquake Activity

City Distance Mag. Time & Date
Minimum magnitude displayed is 2.5.

Coastal Water Temperatures

Place Temperature

Stations

Nearby Weather Stations

Station Location Temp. Windchill Dew Point Humidity Wind Precip. Elev Updated Type
                   

Watches & Warnings

Winter Storm Warning
Issued: 7:32 AM CST Feb. 24, 2017 – National Weather Service

... Winter Storm Warning remains in effect until 6 am CST
Saturday...

* periods of snow will continue today, tapering off tonight.

* The heaviest snowfall rates will occur until noon.

* Additional snow accumulations of 4 to 8 inches are possible.
Light ice accumulations are also possible.

* Winds gusting as high as 35 mph will cause areas of blowing and
drifting snow especially on ridge tops and in open areas. In
addition areas of poor visibility are expected.

* The snow will result in difficult travel conditions, including
during the morning and evening commutes.

Precautionary/preparedness actions...

A Winter Storm Warning means significant amounts of snow... sleet
and ice are occurring. Strong winds are also possible. This will
make travel very hazardous or impossible. The latest Road
conditions for the state you are calling from can be obtained by
calling 5 1 1.